sensor_id;sensor_type;location;lat;lon;timestamp;pressure;altitude;pressure_sealevel;temperature;humidity
21638;BME280;10980;49.596;6.142;2023-03-26T00:00:36;97748.47;;;7.94;100.00
21638;BME280;10980;49.596;6.142;2023-03-26T00:03:59;97743.59;;;7.89;100.00
21638;BME280;10980;49.596;6.142;2023-03-26T00:07:21;97742.63;;;7.81;100.00
21638;BME280;10980;49.596;6.142;2023-03-26T00:10:46;97732.59;;;7.65;100.00
21638;BME280;10980;49.596;6.142;2023-03-26T00:14:09;97728.13;;;7.65;100.00
21638;BME280;10980;49.596;6.142;2023-03-26T00:17:34;97736.06;;;7.65;100.00
21638;BME280;10980;49.596;6.142;2023-03-26T00:20:57;97735.94;;;7.76;100.00
21638;BME280;10980;49.596;6.142;2023-03-26T00:24:20;97731.91;;;7.92;100.00
21638;BME280;10980;49.596;6.142;2023-03-26T00:27:52;97738.16;;;8.10;100.00
21638;BME280;10980;49.596;6.142;2023-03-26T00:31:17;97719.19;;;8.24;100.00
21638;BME280;10980;49.596;6.142;2023-03-26T00:34:39;97704.13;;;8.25;100.00
21638;BME280;10980;49.596;6.142;2023-03-26T00:38:03;97702.75;;;8.11;100.00
21638;BME280;10980;49.596;6.142;2023-03-26T00:41:26;97705.53;;;8.00;100.00
21638;BME280;10980;49.596;6.142;2023-03-26T00:44:53;97686.31;;;7.88;100.00
21638;BME280;10980;49.596;6.142;2023-03-26T00:48:17;97672.16;;;7.80;100.00
21638;BME280;10980;49.596;6.142;2023-03-26T00:51:41;97678.53;;;7.87;100.00
21638;BME280;10980;49.596;6.142;2023-03-26T00:55:03;97673.66;;;7.82;100.00
21638;BME280;10980;49.596;6.142;2023-03-26T00:58:32;97670.91;;;7.74;100.00
21638;BME280;10980;49.596;6.142;2023-03-26T01:01:57;97665.59;;;7.64;100.00
21638;BME280;10980;49.596;6.142;2023-03-26T01:08:56;97666.31;;;7.66;100.00
21638;BME280;10980;49.596;6.142;2023-03-26T01:12:26;97644.56;;;7.72;100.00
21638;BME280;10980;49.596;6.142;2023-03-26T01:15:50;97645.72;;;7.60;100.00
21638;BME280;10980;49.596;6.142;2023-03-26T01:19:42;97641.66;;;7.37;100.00
21638;BME280;10980;49.596;6.142;2023-03-26T01:23:16;97634.56;;;7.18;100.00
21638;BME280;10980;49.596;6.142;2023-03-26T01:31:04;97618.44;;;7.31;100.00
21638;BME280;10980;49.596;6.142;2023-03-26T01:39:18;97601.41;;;7.14;100.00
21638;BME280;10980;49.596;6.142;2023-03-26T01:46:37;97591.56;;;7.35;100.00
21638;BME280;10980;49.596;6.142;2023-03-26T01:50:08;97568.84;;;7.52;100.00
21638;BME280;10980;49.596;6.142;2023-03-26T01:53:37;97572.63;;;7.59;100.00
21638;BME280;10980;49.596;6.142;2023-03-26T01:57:19;97567.97;;;7.81;100.00
21638;BME280;10980;49.596;6.142;2023-03-26T02:01:15;97553.16;;;7.88;100.00
21638;BME280;10980;49.596;6.142;2023-03-26T02:05:21;97539.38;;;7.94;100.00
21638;BME280;10980;49.596;6.142;2023-03-26T02:09:04;97520.94;;;7.65;100.00
21638;BME280;10980;49.596;6.142;2023-03-26T02:12:32;97528.97;;;7.73;100.00
21638;BME280;10980;49.596;6.142;2023-03-26T02:16:02;97522.38;;;7.87;100.00
21638;BME280;10980;49.596;6.142;2023-03-26T02:19:37;97502.47;;;7.92;100.00
21638;BME280;10980;49.596;6.142;2023-03-26T02:23:06;97478.66;;;7.83;100.00
21638;BME280;10980;49.596;6.142;2023-03-26T02:26:34;97483.50;;;7.97;100.00
21638;BME280;10980;49.596;6.142;2023-03-26T02:30:24;97467.91;;;7.94;100.00
21638;BME280;10980;49.596;6.142;2023-03-26T02:33:59;97452.81;;;8.04;100.00
21638;BME280;10980;49.596;6.142;2023-03-26T02:37:27;97452.81;;;8.04;100.00
21638;BME280;10980;49.596;6.142;2023-03-26T02:41:13;97447.53;;;8.04;100.00
21638;BME280;10980;49.596;6.142;2023-03-26T02:44:58;97467.06;;;8.21;100.00
21638;BME280;10980;49.596;6.142;2023-03-26T02:48:41;97464.97;;;7.97;100.00
21638;BME280;10980;49.596;6.142;2023-03-26T02:52:18;97459.19;;;8.11;100.00
21638;BME280;10980;49.596;6.142;2023-03-26T02:55:43;97456.16;;;8.06;100.00
21638;BME280;10980;49.596;6.142;2023-03-26T02:59:19;97446.38;;;8.06;100.00
21638;BME280;10980;49.596;6.142;2023-03-26T03:03:03;97441.94;;;8.07;100.00
21638;BME280;10980;49.596;6.142;2023-03-26T03:07:00;97411.97;;;8.06;100.00
21638;BME280;10980;49.596;6.142;2023-03-26T03:10:29;97441.28;;;8.23;100.00
21638;BME280;10980;49.596;6.142;2023-03-26T03:14:19;97398.78;;;7.97;100.00
21638;BME280;10980;49.596;6.142;2023-03-26T03:17:42;97389.56;;;8.01;100.00
21638;BME280;10980;49.596;6.142;2023-03-26T03:21:08;97379.75;;;8.11;100.00
21638;BME280;10980;49.596;6.142;2023-03-26T03:24:37;97393.66;;;8.13;100.00
21638;BME280;10980;49.596;6.142;2023-03-26T03:28:03;97357.13;;;7.99;100.00
21638;BME280;10980;49.596;6.142;2023-03-26T03:31:31;97362.88;;;8.12;100.00
21638;BME280;10980;49.596;6.142;2023-03-26T03:35:02;97338.28;;;8.02;100.00
21638;BME280;10980;49.596;6.142;2023-03-26T03:38:42;97335.78;;;8.18;100.00
21638;BME280;10980;49.596;6.142;2023-03-26T03:42:17;97318.50;;;8.06;100.00
21638;BME280;10980;49.596;6.142;2023-03-26T03:45:56;97315.28;;;8.02;100.00
21638;BME280;10980;49.596;6.142;2023-03-26T03:49:30;97307.91;;;8.06;100.00
21638;BME280;10980;49.596;6.142;2023-03-26T03:53:06;97304.56;;;8.04;100.00
21638;BME280;10980;49.596;6.142;2023-03-26T03:56:29;97318.94;;;8.19;100.00
21638;BME280;10980;49.596;6.142;2023-03-26T04:00:21;97303.06;;;8.19;100.00
21638;BME280;10980;49.596;6.142;2023-03-26T04:04:16;97302.66;;;8.14;100.00
21638;BME280;10980;49.596;6.142;2023-03-26T04:08:24;97269.41;;;7.94;100.00
21638;BME280;10980;49.596;6.142;2023-03-26T04:11:51;97280.97;;;7.93;100.00
21638;BME280;10980;49.596;6.142;2023-03-26T04:15:31;97282.63;;;7.94;100.00
21638;BME280;10980;49.596;6.142;2023-03-26T04:18:59;97264.63;;;7.97;100.00
21638;BME280;10980;49.596;6.142;2023-03-26T04:22:30;97237.50;;;7.77;100.00
21638;BME280;10980;49.596;6.142;2023-03-26T04:26:16;97236.81;;;7.75;100.00
21638;BME280;10980;49.596;6.142;2023-03-26T04:30:13;97224.78;;;7.81;100.00
21638;BME280;10980;49.596;6.142;2023-03-26T04:34:06;97228.88;;;7.93;100.00
21638;BME280;10980;49.596;6.142;2023-03-26T04:37:44;97233.53;;;7.99;100.00
21638;BME280;10980;49.596;6.142;2023-03-26T04:41:17;97226.06;;;7.95;100.00
21638;BME280;10980;49.596;6.142;2023-03-26T04:44:56;97195.53;;;7.83;100.00
21638;BME280;10980;49.596;6.142;2023-03-26T04:48:28;97211.75;;;7.88;100.00
21638;BME280;10980;49.596;6.142;2023-03-26T04:51:52;97192.97;;;7.91;100.00
21638;BME280;10980;49.596;6.142;2023-03-26T04:55:48;97221.41;;;7.89;100.00
21638;BME280;10980;49.596;6.142;2023-03-26T04:59:32;97179.06;;;7.89;100.00
21638;BME280;10980;49.596;6.142;2023-03-26T05:03:11;97181.63;;;7.81;100.00
21638;BME280;10980;49.596;6.142;2023-03-26T05:06:40;97153.44;;;7.89;100.00
21638;BME280;10980;49.596;6.142;2023-03-26T05:10:15;97189.81;;;8.13;100.00
21638;BME280;10980;49.596;6.142;2023-03-26T05:17:38;97141.63;;;7.84;100.00
21638;BME280;10980;49.596;6.142;2023-03-26T05:21:25;97138.09;;;7.75;100.00
21638;BME280;10980;49.596;6.142;2023-03-26T05:24:47;97140.22;;;7.97;100.00
21638;BME280;10980;49.596;6.142;2023-03-26T05:28:10;97145.06;;;8.02;100.00
21638;BME280;10980;49.596;6.142;2023-03-26T05:31:45;97122.84;;;7.95;100.00
21638;BME280;10980;49.596;6.142;2023-03-26T05:35:20;97100.69;;;7.96;100.00
21638;BME280;10980;49.596;6.142;2023-03-26T05:38:42;97085.44;;;7.90;100.00
21638;BME280;10980;49.596;6.142;2023-03-26T05:42:13;97079.00;;;7.92;100.00
21638;BME280;10980;49.596;6.142;2023-03-26T05:46:06;97046.94;;;7.95;100.00
21638;BME280;10980;49.596;6.142;2023-03-26T05:49:34;97031.56;;;7.99;100.00
21638;BME280;10980;49.596;6.142;2023-03-26T05:52:56;97056.03;;;7.93;100.00
21638;BME280;10980;49.596;6.142;2023-03-26T05:56:43;97047.19;;;8.10;100.00
21638;BME280;10980;49.596;6.142;2023-03-26T06:00:25;97035.09;;;8.07;100.00
21638;BME280;10980;49.596;6.142;2023-03-26T06:03:52;97023.19;;;7.77;100.00
21638;BME280;10980;49.596;6.142;2023-03-26T06:07:16;97017.56;;;7.81;100.00
21638;BME280;10980;49.596;6.142;2023-03-26T06:10:47;97000.03;;;7.80;100.00
21638;BME280;10980;49.596;6.142;2023-03-26T06:14:11;97002.84;;;7.78;100.00
21638;BME280;10980;49.596;6.142;2023-03-26T06:17:41;96993.13;;;7.87;100.00
21638;BME280;10980;49.596;6.142;2023-03-26T06:21:21;96992.78;;;7.82;100.00
21638;BME280;10980;49.596;6.142;2023-03-26T06:24:47;96983.84;;;7.83;100.00
21638;BME280;10980;49.596;6.142;2023-03-26T06:28:29;96983.34;;;7.53;100.00
21638;BME280;10980;49.596;6.142;2023-03-26T06:32:06;96974.66;;;7.61;100.00
21638;BME280;10980;49.596;6.142;2023-03-26T06:35:55;96969.63;;;7.50;100.00
21638;BME280;10980;49.596;6.142;2023-03-26T06:39:19;96960.72;;;7.59;100.00
21638;BME280;10980;49.596;6.142;2023-03-26T06:42:51;96977.75;;;7.56;100.00
21638;BME280;10980;49.596;6.142;2023-03-26T06:46:52;96977.81;;;7.64;100.00
21638;BME280;10980;49.596;6.142;2023-03-26T06:51:01;96968.06;;;7.65;100.00
21638;BME280;10980;49.596;6.142;2023-03-26T06:54:52;96958.53;;;7.80;100.00
21638;BME280;10980;49.596;6.142;2023-03-26T06:58:46;96946.47;;;7.77;100.00
21638;BME280;10980;49.596;6.142;2023-03-26T07:02:27;96948.94;;;7.79;100.00
21638;BME280;10980;49.596;6.142;2023-03-26T07:06:15;96947.25;;;8.12;100.00
21638;BME280;10980;49.596;6.142;2023-03-26T07:09:57;96936.69;;;8.28;100.00
21638;BME280;10980;49.596;6.142;2023-03-26T07:13:51;96933.13;;;8.46;100.00
21638;BME280;10980;49.596;6.142;2023-03-26T07:17:31;96926.22;;;8.69;100.00
21638;BME280;10980;49.596;6.142;2023-03-26T07:20:58;96921.88;;;8.76;100.00
21638;BME280;10980;49.596;6.142;2023-03-26T07:24:24;96920.41;;;8.82;100.00
21638;BME280;10980;49.596;6.142;2023-03-26T07:28:33;96910.66;;;8.82;100.00
21638;BME280;10980;49.596;6.142;2023-03-26T07:36:49;96907.47;;;9.11;100.00
21638;BME280;10980;49.596;6.142;2023-03-26T07:49:47;96889.53;;;9.30;100.00
21638;BME280;10980;49.596;6.142;2023-03-26T07:53:19;96890.28;;;9.63;100.00
21638;BME280;10980;49.596;6.142;2023-03-26T07:57:00;96890.13;;;9.95;100.00
21638;BME280;10980;49.596;6.142;2023-03-26T08:00:55;96872.88;;;10.30;100.00
21638;BME280;10980;49.596;6.142;2023-03-26T08:09:34;96887.50;;;10.26;100.00
21638;BME280;10980;49.596;6.142;2023-03-26T08:13:55;96886.41;;;10.12;100.00
21638;BME280;10980;49.596;6.142;2023-03-26T08:17:51;96895.06;;;10.06;100.00
21638;BME280;10980;49.596;6.142;2023-03-26T08:26:38;96902.81;;;9.77;100.00
21638;BME280;10980;49.596;6.142;2023-03-26T08:30:24;96900.69;;;9.72;100.00
21638;BME280;10980;49.596;6.142;2023-03-26T08:33:47;96880.34;;;9.56;100.00
21638;BME280;10980;49.596;6.142;2023-03-26T08:37:12;96908.72;;;9.56;100.00
21638;BME280;10980;49.596;6.142;2023-03-26T09:16:35;96938.63;;;11.57;100.00
21638;BME280;10980;49.596;6.142;2023-03-26T09:41:34;96946.59;;;12.31;100.00
21638;BME280;10980;49.596;6.142;2023-03-26T09:49:40;96942.16;;;12.53;100.00
21638;BME280;10980;49.596;6.142;2023-03-26T09:53:50;96946.34;;;12.26;100.00
21638;BME280;10980;49.596;6.142;2023-03-26T09:57:55;96950.31;;;12.01;100.00
21638;BME280;10980;49.596;6.142;2023-03-26T10:01:41;96955.75;;;12.22;100.00
21638;BME280;10980;49.596;6.142;2023-03-26T10:05:21;96944.03;;;12.38;100.00
21638;BME280;10980;49.596;6.142;2023-03-26T10:09:28;96950.25;;;12.45;100.00
21638;BME280;10980;49.596;6.142;2023-03-26T10:13:27;96957.25;;;12.31;100.00
21638;BME280;10980;49.596;6.142;2023-03-26T10:21:24;96950.56;;;12.35;100.00
21638;BME280;10980;49.596;6.142;2023-03-26T10:25:28;96951.28;;;12.80;100.00
21638;BME280;10980;49.596;6.142;2023-03-26T10:37:08;96947.16;;;13.48;100.00
21638;BME280;10980;49.596;6.142;2023-03-26T10:41:11;96956.59;;;13.72;100.00
21638;BME280;10980;49.596;6.142;2023-03-26T10:44:54;96944.47;;;13.69;100.00
21638;BME280;10980;49.596;6.142;2023-03-26T10:53:19;96967.28;;;12.29;100.00
21638;BME280;10980;49.596;6.142;2023-03-26T10:56:47;96963.16;;;12.27;100.00
21638;BME280;10980;49.596;6.142;2023-03-26T11:00:20;96964.09;;;12.70;100.00
21638;BME280;10980;49.596;6.142;2023-03-26T11:03:52;96960.50;;;12.63;100.00
21638;BME280;10980;49.596;6.142;2023-03-26T11:11:46;96974.09;;;13.25;100.00
21638;BME280;10980;49.596;6.142;2023-03-26T11:15:39;96964.22;;;12.83;100.00
21638;BME280;10980;49.596;6.142;2023-03-26T11:19:35;96961.06;;;12.22;100.00
21638;BME280;10980;49.596;6.142;2023-03-26T11:23:35;96957.56;;;13.15;100.00
21638;BME280;10980;49.596;6.142;2023-03-26T11:35:24;96969.81;;;12.67;100.00
21638;BME280;10980;49.596;6.142;2023-03-26T11:39:20;96967.22;;;12.59;100.00
21638;BME280;10980;49.596;6.142;2023-03-26T11:42:44;96965.13;;;13.11;100.00
21638;BME280;10980;49.596;6.142;2023-03-26T11:46:17;96974.59;;;12.57;100.00
21638;BME280;10980;49.596;6.142;2023-03-26T11:49:43;96971.69;;;12.51;100.00
21638;BME280;10980;49.596;6.142;2023-03-26T11:53:15;96961.63;;;11.88;100.00
21638;BME280;10980;49.596;6.142;2023-03-26T11:57:05;96960.41;;;11.76;100.00
21638;BME280;10980;49.596;6.142;2023-03-26T12:00:29;96965.66;;;11.99;100.00
21638;BME280;10980;49.596;6.142;2023-03-26T12:04:08;96957.56;;;12.36;100.00
21638;BME280;10980;49.596;6.142;2023-03-26T12:07:34;96945.31;;;12.42;100.00
21638;BME280;10980;49.596;6.142;2023-03-26T12:11:10;96950.31;;;12.88;100.00
21638;BME280;10980;49.596;6.142;2023-03-26T12:14:33;96948.19;;;13.47;100.00
21638;BME280;10980;49.596;6.142;2023-03-26T12:17:58;96956.50;;;13.31;100.00
21638;BME280;10980;49.596;6.142;2023-03-26T12:21:47;96947.78;;;13.22;100.00
21638;BME280;10980;49.596;6.142;2023-03-26T12:25:32;96949.88;;;13.27;100.00
21638;BME280;10980;49.596;6.142;2023-03-26T12:28:54;96945.41;;;13.12;100.00
21638;BME280;10980;49.596;6.142;2023-03-26T12:32:16;96948.41;;;13.03;100.00
21638;BME280;10980;49.596;6.142;2023-03-26T12:35:45;96946.63;;;13.31;100.00
21638;BME280;10980;49.596;6.142;2023-03-26T12:39:41;96948.59;;;13.44;100.00
21638;BME280;10980;49.596;6.142;2023-03-26T12:47:29;96943.25;;;13.79;100.00
21638;BME280;10980;49.596;6.142;2023-03-26T12:58:56;96933.19;;;13.46;100.00
21638;BME280;10980;49.596;6.142;2023-03-26T13:03:05;96940.88;;;13.56;100.00
21638;BME280;10980;49.596;6.142;2023-03-26T13:06:54;96917.22;;;14.28;100.00
21638;BME280;10980;49.596;6.142;2023-03-26T13:18:54;96949.44;;;13.51;100.00
21638;BME280;10980;49.596;6.142;2023-03-26T13:26:47;96959.06;;;11.94;100.00
21638;BME280;10980;49.596;6.142;2023-03-26T13:30:38;96942.91;;;11.81;100.00
21638;BME280;10980;49.596;6.142;2023-03-26T13:38:05;96945.53;;;13.04;100.00
21638;BME280;10980;49.596;6.142;2023-03-26T13:41:38;96922.72;;;14.14;100.00
21638;BME280;10980;49.596;6.142;2023-03-26T13:45:36;96929.66;;;14.56;100.00
21638;BME280;10980;49.596;6.142;2023-03-26T13:49:28;96921.13;;;15.07;100.00
21638;BME280;10980;49.596;6.142;2023-03-26T13:53:05;96956.69;;;13.57;100.00
21638;BME280;10980;49.596;6.142;2023-03-26T13:56:48;97001.38;;;11.14;100.00
21638;BME280;10980;49.596;6.142;2023-03-26T14:00:22;97005.19;;;10.35;100.00
21638;BME280;10980;49.596;6.142;2023-03-26T14:04:09;96991.75;;;9.73;100.00
21638;BME280;10980;49.596;6.142;2023-03-26T14:08:18;97002.22;;;9.66;100.00
21638;BME280;10980;49.596;6.142;2023-03-26T14:15:45;96969.25;;;10.08;100.00
21638;BME280;10980;49.596;6.142;2023-03-26T14:23:10;96955.72;;;10.88;100.00
21638;BME280;10980;49.596;6.142;2023-03-26T14:34:34;96970.59;;;10.97;100.00
21638;BME280;10980;49.596;6.142;2023-03-26T14:38:33;96950.13;;;11.20;100.00
21638;BME280;10980;49.596;6.142;2023-03-26T14:42:41;96956.47;;;11.19;100.00
21638;BME280;10980;49.596;6.142;2023-03-26T14:46:39;96957.28;;;11.20;100.00
21638;BME280;10980;49.596;6.142;2023-03-26T14:54:30;96946.00;;;12.00;100.00
21638;BME280;10980;49.596;6.142;2023-03-26T15:11:38;96997.88;;;10.68;100.00
21638;BME280;10980;49.596;6.142;2023-03-26T15:16:05;97020.41;;;10.02;100.00
21638;BME280;10980;49.596;6.142;2023-03-26T15:28:08;97022.81;;;9.32;100.00
21638;BME280;10980;49.596;6.142;2023-03-26T15:36:12;97013.69;;;9.34;100.00
21638;BME280;10980;49.596;6.142;2023-03-26T15:48:05;97009.88;;;9.53;100.00
21638;BME280;10980;49.596;6.142;2023-03-26T15:51:57;97009.16;;;9.83;100.00
21638;BME280;10980;49.596;6.142;2023-03-26T15:55:39;96993.28;;;9.67;100.00
21638;BME280;10980;49.596;6.142;2023-03-26T16:00:05;96993.53;;;9.89;100.00
21638;BME280;10980;49.596;6.142;2023-03-26T16:04:12;97025.72;;;10.02;100.00
21638;BME280;10980;49.596;6.142;2023-03-26T16:15:29;97021.75;;;9.81;100.00
21638;BME280;10980;49.596;6.142;2023-03-26T16:22:56;97034.41;;;9.63;100.00
21638;BME280;10980;49.596;6.142;2023-03-26T16:26:34;97037.19;;;9.78;100.00
21638;BME280;10980;49.596;6.142;2023-03-26T16:30:30;97034.72;;;9.76;100.00
21638;BME280;10980;49.596;6.142;2023-03-26T16:34:20;97030.22;;;9.77;100.00
21638;BME280;10980;49.596;6.142;2023-03-26T16:38:02;97038.03;;;9.78;100.00
21638;BME280;10980;49.596;6.142;2023-03-26T16:41:29;97043.84;;;9.82;100.00
21638;BME280;10980;49.596;6.142;2023-03-26T16:57:39;97046.91;;;10.10;100.00
21638;BME280;10980;49.596;6.142;2023-03-26T17:01:16;97048.44;;;10.04;100.00
21638;BME280;10980;49.596;6.142;2023-03-26T17:04:47;97045.66;;;9.90;100.00
21638;BME280;10980;49.596;6.142;2023-03-26T17:12:27;97072.41;;;9.55;100.00
21638;BME280;10980;49.596;6.142;2023-03-26T17:16:24;97071.41;;;9.56;100.00
21638;BME280;10980;49.596;6.142;2023-03-26T17:20:31;97086.16;;;9.51;100.00
21638;BME280;10980;49.596;6.142;2023-03-26T17:28:36;97094.78;;;9.45;100.00
21638;BME280;10980;49.596;6.142;2023-03-26T17:32:12;97102.06;;;9.43;100.00
21638;BME280;10980;49.596;6.142;2023-03-26T17:35:48;97111.19;;;9.48;100.00
21638;BME280;10980;49.596;6.142;2023-03-26T17:43:46;97113.13;;;9.14;100.00
21638;BME280;10980;49.596;6.142;2023-03-26T17:55:25;97132.91;;;8.77;100.00
21638;BME280;10980;49.596;6.142;2023-03-26T17:58:59;97141.16;;;8.66;100.00
21638;BME280;10980;49.596;6.142;2023-03-26T18:02:40;97146.13;;;8.69;100.00
21638;BME280;10980;49.596;6.142;2023-03-26T18:17:20;97163.09;;;8.50;100.00
21638;BME280;10980;49.596;6.142;2023-03-26T18:20:50;97152.63;;;8.41;100.00
21638;BME280;10980;49.596;6.142;2023-03-26T18:24:27;97172.47;;;8.36;100.00
21638;BME280;10980;49.596;6.142;2023-03-26T18:27:50;97189.38;;;8.44;100.00
21638;BME280;10980;49.596;6.142;2023-03-26T18:31:24;97190.22;;;8.44;100.00
21638;BME280;10980;49.596;6.142;2023-03-26T18:35:12;97198.00;;;8.46;100.00
21638;BME280;10980;49.596;6.142;2023-03-26T18:38:34;97203.97;;;8.48;100.00
21638;BME280;10980;49.596;6.142;2023-03-26T18:42:08;97210.25;;;8.47;100.00
21638;BME280;10980;49.596;6.142;2023-03-26T18:45:51;97203.28;;;8.46;100.00
21638;BME280;10980;49.596;6.142;2023-03-26T18:49:17;97204.25;;;8.36;100.00
21638;BME280;10980;49.596;6.142;2023-03-26T18:52:40;97238.34;;;8.40;100.00
21638;BME280;10980;49.596;6.142;2023-03-26T19:00:03;97233.53;;;8.35;100.00
21638;BME280;10980;49.596;6.142;2023-03-26T19:03:40;97242.22;;;8.27;100.00
21638;BME280;10980;49.596;6.142;2023-03-26T19:07:20;97247.19;;;8.30;100.00
21638;BME280;10980;49.596;6.142;2023-03-26T19:10:53;97237.81;;;8.18;100.00
21638;BME280;10980;49.596;6.142;2023-03-26T19:14:22;97246.16;;;8.23;100.00
21638;BME280;10980;49.596;6.142;2023-03-26T19:17:59;97256.50;;;8.17;100.00
21638;BME280;10980;49.596;6.142;2023-03-26T19:21:28;97256.91;;;8.22;100.00
21638;BME280;10980;49.596;6.142;2023-03-26T19:24:55;97255.53;;;8.18;100.00
21638;BME280;10980;49.596;6.142;2023-03-26T19:31:50;97271.88;;;8.13;100.00
21638;BME280;10980;49.596;6.142;2023-03-26T19:35:22;97287.75;;;8.13;100.00
21638;BME280;10980;49.596;6.142;2023-03-26T19:38:50;97285.75;;;8.07;100.00
21638;BME280;10980;49.596;6.142;2023-03-26T19:42:32;97296.69;;;8.12;100.00
21638;BME280;10980;49.596;6.142;2023-03-26T19:46:12;97295.94;;;8.02;100.00
21638;BME280;10980;49.596;6.142;2023-03-26T19:49:56;97310.69;;;8.04;100.00
21638;BME280;10980;49.596;6.142;2023-03-26T19:53:52;97316.81;;;8.05;100.00
21638;BME280;10980;49.596;6.142;2023-03-26T19:57:14;97311.81;;;8.02;100.00
21638;BME280;10980;49.596;6.142;2023-03-26T20:00:42;97332.72;;;8.05;100.00
21638;BME280;10980;49.596;6.142;2023-03-26T20:04:09;97326.66;;;7.95;100.00
21638;BME280;10980;49.596;6.142;2023-03-26T20:07:39;97326.03;;;8.01;100.00
21638;BME280;10980;49.596;6.142;2023-03-26T20:11:03;97336.09;;;7.97;100.00
21638;BME280;10980;49.596;6.142;2023-03-26T20:14:28;97345.22;;;7.85;100.00
21638;BME280;10980;49.596;6.142;2023-03-26T20:17:54;97357.94;;;7.82;100.00
21638;BME280;10980;49.596;6.142;2023-03-26T20:21:16;97356.56;;;7.77;100.00
21638;BME280;10980;49.596;6.142;2023-03-26T20:24:38;97350.25;;;7.61;100.00
21638;BME280;10980;49.596;6.142;2023-03-26T20:28:01;97359.38;;;7.48;100.00
21638;BME280;10980;49.596;6.142;2023-03-26T20:31:28;97358.69;;;7.46;100.00
21638;BME280;10980;49.596;6.142;2023-03-26T20:34:50;97375.16;;;7.58;100.00
21638;BME280;10980;49.596;6.142;2023-03-26T20:38:12;97372.81;;;7.55;100.00
21638;BME280;10980;49.596;6.142;2023-03-26T20:41:46;97385.38;;;7.53;100.00
21638;BME280;10980;49.596;6.142;2023-03-26T20:45:20;97392.81;;;7.67;100.00
21638;BME280;10980;49.596;6.142;2023-03-26T20:48:50;97397.81;;;7.70;100.00
21638;BME280;10980;49.596;6.142;2023-03-26T20:52:15;97398.59;;;7.81;100.00
21638;BME280;10980;49.596;6.142;2023-03-26T20:55:44;97408.88;;;7.84;100.00
21638;BME280;10980;49.596;6.142;2023-03-26T20:59:15;97414.81;;;7.68;100.00
21638;BME280;10980;49.596;6.142;2023-03-26T21:02:39;97427.25;;;7.85;100.00
21638;BME280;10980;49.596;6.142;2023-03-26T21:06:09;97434.53;;;7.83;100.00
21638;BME280;10980;49.596;6.142;2023-03-26T21:09:42;97449.25;;;7.86;100.00
21638;BME280;10980;49.596;6.142;2023-03-26T21:13:36;97452.41;;;7.99;100.00
21638;BME280;10980;49.596;6.142;2023-03-26T21:17:00;97462.50;;;8.13;100.00
21638;BME280;10980;49.596;6.142;2023-03-26T21:20:25;97456.38;;;8.13;100.00
21638;BME280;10980;49.596;6.142;2023-03-26T21:31:15;97468.47;;;8.15;100.00
21638;BME280;10980;49.596;6.142;2023-03-26T21:34:42;97473.94;;;8.14;100.00
21638;BME280;10980;49.596;6.142;2023-03-26T21:38:19;97476.69;;;8.22;100.00
21638;BME280;10980;49.596;6.142;2023-03-26T21:41:47;97486.13;;;7.97;100.00
21638;BME280;10980;49.596;6.142;2023-03-26T21:45:28;97496.13;;;8.03;100.00
21638;BME280;10980;49.596;6.142;2023-03-26T21:48:50;97492.25;;;7.97;100.00
21638;BME280;10980;49.596;6.142;2023-03-26T21:52:12;97517.06;;;7.96;100.00
21638;BME280;10980;49.596;6.142;2023-03-26T21:56:09;97524.50;;;7.83;100.00
21638;BME280;10980;49.596;6.142;2023-03-26T22:03:28;97544.78;;;7.36;100.00
21638;BME280;10980;49.596;6.142;2023-03-26T22:11:17;97571.38;;;6.86;100.00
21638;BME280;10980;49.596;6.142;2023-03-26T22:14:39;97584.88;;;7.02;100.00
21638;BME280;10980;49.596;6.142;2023-03-26T22:18:02;97594.59;;;7.11;100.00
21638;BME280;10980;49.596;6.142;2023-03-26T22:21:25;97615.06;;;7.09;100.00
21638;BME280;10980;49.596;6.142;2023-03-26T22:24:46;97616.03;;;7.08;100.00
21638;BME280;10980;49.596;6.142;2023-03-26T22:28:13;97604.50;;;7.00;100.00
21638;BME280;10980;49.596;6.142;2023-03-26T22:31:44;97632.84;;;6.88;100.00
21638;BME280;10980;49.596;6.142;2023-03-26T22:35:09;97615.91;;;7.00;100.00
21638;BME280;10980;49.596;6.142;2023-03-26T22:38:32;97633.66;;;6.98;100.00
21638;BME280;10980;49.596;6.142;2023-03-26T22:41:54;97639.53;;;6.92;100.00
21638;BME280;10980;49.596;6.142;2023-03-26T22:45:16;97637.25;;;6.78;100.00
21638;BME280;10980;49.596;6.142;2023-03-26T22:48:38;97655.38;;;6.92;100.00
21638;BME280;10980;49.596;6.142;2023-03-26T22:52:05;97662.03;;;6.96;100.00
21638;BME280;10980;49.596;6.142;2023-03-26T22:55:34;97668.41;;;6.84;100.00
21638;BME280;10980;49.596;6.142;2023-03-26T22:58:57;97683.56;;;6.82;100.00
21638;BME280;10980;49.596;6.142;2023-03-26T23:02:22;97693.16;;;6.83;100.00
21638;BME280;10980;49.596;6.142;2023-03-26T23:06:07;97703.63;;;6.84;100.00
21638;BME280;10980;49.596;6.142;2023-03-26T23:09:33;97710.97;;;6.81;100.00
21638;BME280;10980;49.596;6.142;2023-03-26T23:12:57;97713.31;;;6.84;100.00
21638;BME280;10980;49.596;6.142;2023-03-26T23:16:27;97737.66;;;6.78;100.00
21638;BME280;10980;49.596;6.142;2023-03-26T23:19:52;97723.19;;;6.72;100.00
21638;BME280;10980;49.596;6.142;2023-03-26T23:23:14;97742.78;;;6.70;100.00
21638;BME280;10980;49.596;6.142;2023-03-26T23:26:39;97730.16;;;6.52;100.00
21638;BME280;10980;49.596;6.142;2023-03-26T23:30:12;97774.34;;;6.71;100.00
21638;BME280;10980;49.596;6.142;2023-03-26T23:33:40;97765.22;;;6.85;100.00
21638;BME280;10980;49.596;6.142;2023-03-26T23:37:16;97779.84;;;6.58;100.00
21638;BME280;10980;49.596;6.142;2023-03-26T23:40:57;97789.94;;;6.84;100.00
21638;BME280;10980;49.596;6.142;2023-03-26T23:44:32;97810.59;;;6.69;100.00
21638;BME280;10980;49.596;6.142;2023-03-26T23:47:55;97788.78;;;6.46;100.00
21638;BME280;10980;49.596;6.142;2023-03-26T23:51:21;97818.41;;;6.50;100.00
21638;BME280;10980;49.596;6.142;2023-03-26T23:54:56;97813.84;;;6.31;100.00
21638;BME280;10980;49.596;6.142;2023-03-26T23:58:21;97832.25;;;6.42;100.00
